createdAt,value
2022-08-03T00:01:43.119Z,20.25
2022-08-03T00:04:11.303Z,20.18
2022-08-03T00:06:39.133Z,20.12
2022-08-03T00:09:08.155Z,20.12
2022-08-03T00:11:37.161Z,20.10
2022-08-03T00:14:07.984Z,20.10
2022-08-03T00:16:36.106Z,20.07
2022-08-03T00:19:04.378Z,20.04
2022-08-03T00:21:31.834Z,20.02
2022-08-03T00:23:59.107Z,19.99
2022-08-03T00:26:26.351Z,19.96
2022-08-03T00:28:53.854Z,19.98
2022-08-03T00:31:27.759Z,19.98
2022-08-03T00:34:08.570Z,20.00
2022-08-03T00:36:35.791Z,19.97
2022-08-03T00:39:03.107Z,19.87
2022-08-03T00:41:30.630Z,19.86
2022-08-03T00:43:57.851Z,19.82
2022-08-03T00:46:25.067Z,19.77
2022-08-03T00:48:53.446Z,19.73
2022-08-03T00:51:22.355Z,19.71
2022-08-03T00:53:51.039Z,19.68
2022-08-03T00:56:18.909Z,19.65
2022-08-03T00:58:47.585Z,19.61
2022-08-03T01:01:15.407Z,19.61
2022-08-03T01:03:43.150Z,19.59
2022-08-03T01:06:23.147Z,19.54
2022-08-03T01:09:04.717Z,19.54
2022-08-03T01:11:59.819Z,19.55
2022-08-03T01:14:46.041Z,19.51
2022-08-03T01:17:49.144Z,19.48
2022-08-03T01:20:20.928Z,19.50
2022-08-03T01:23:28.991Z,19.42
2022-08-03T01:26:20.672Z,19.42
2022-08-03T01:29:37.992Z,19.38
2022-08-03T01:33:02.785Z,19.38
2022-08-03T01:35:29.409Z,19.32
2022-08-03T01:38:04.765Z,19.32
2022-08-03T01:40:39.606Z,19.30
2022-08-03T01:43:12.899Z,19.23
2022-08-03T01:45:44.023Z,19.23
2022-08-03T01:48:17.720Z,19.19
2022-08-03T01:50:47.834Z,19.18
2022-08-03T01:53:17.539Z,19.17
2022-08-03T01:55:54.167Z,19.14
2022-08-03T01:58:24.669Z,19.14
2022-08-03T02:00:58.279Z,19.13
2022-08-03T02:03:28.977Z,19.13
2022-08-03T02:07:00.215Z,19.09
2022-08-03T02:08:49.390Z,19.07
2022-08-03T02:11:17.163Z,19.09
2022-08-03T02:13:47.262Z,19.07
2022-08-03T02:16:15.015Z,19.09
2022-08-03T02:18:43.414Z,19.11
2022-08-03T02:21:12.249Z,19.11
2022-08-03T02:24:00.042Z,19.08
2022-08-03T02:26:31.013Z,19.08
2022-08-03T02:29:19.051Z,19.07
2022-08-03T02:31:49.352Z,18.97
2022-08-03T02:34:21.189Z,19.02
2022-08-03T02:36:53.800Z,19.03
2022-08-03T02:39:26.395Z,19.06
2022-08-03T02:42:02.319Z,19.08
2022-08-03T02:44:33.709Z,19.03
2022-08-03T02:47:11.022Z,18.94
2022-08-03T02:49:51.472Z,18.95
2022-08-03T02:52:25.530Z,18.97
2022-08-03T02:54:57.848Z,18.96
2022-08-03T02:57:29.933Z,18.94
2022-08-03T03:00:00.179Z,18.96
2022-08-03T03:02:30.062Z,18.96
2022-08-03T03:05:52.448Z,18.97
2022-08-03T03:07:52.061Z,18.95
2022-08-03T03:10:24.938Z,18.92
2022-08-03T03:12:58.539Z,18.91
2022-08-03T03:15:29.207Z,18.85
2022-08-03T03:17:58.206Z,18.84
2022-08-03T03:20:30.186Z,18.86
2022-08-03T03:23:02.741Z,18.81
2022-08-03T03:25:34.463Z,18.76
2022-08-03T03:28:03.043Z,18.75
2022-08-03T03:30:30.956Z,18.76
2022-08-03T03:32:59.676Z,18.75
2022-08-03T03:35:28.303Z,18.79
2022-08-03T03:37:56.769Z,18.83
2022-08-03T03:40:25.030Z,18.89
2022-08-03T03:42:52.649Z,18.86
2022-08-03T03:45:21.803Z,18.90
2022-08-03T03:47:49.598Z,18.87
2022-08-03T03:50:19.542Z,18.94
2022-08-03T03:52:46.991Z,19.00
2022-08-03T03:55:19.341Z,19.06
2022-08-03T03:57:46.743Z,19.14
2022-08-03T04:00:16.924Z,19.20
2022-08-03T04:02:45.958Z,19.23
2022-08-03T04:05:34.201Z,19.25
2022-08-03T04:08:25.272Z,19.28
2022-08-03T04:11:29.368Z,19.24
2022-08-03T04:14:13.315Z,19.29
2022-08-03T04:16:49.205Z,19.34
2022-08-03T04:19:26.978Z,19.38
2022-08-03T04:22:00.944Z,19.43
2022-08-03T04:24:48.325Z,19.46
2022-08-03T04:27:22.017Z,19.49
2022-08-03T04:29:55.085Z,19.56
2022-08-03T04:32:28.728Z,19.59
2022-08-03T04:34:56.534Z,19.64
2022-08-03T04:37:40.158Z,19.68
2022-08-03T04:40:13.777Z,19.72
2022-08-03T04:42:43.174Z,19.79
2022-08-03T04:45:15.067Z,19.88
2022-08-03T04:47:44.592Z,19.94
2022-08-03T04:50:15.023Z,20.02
2022-08-03T04:52:45.269Z,20.13
2022-08-03T04:55:12.493Z,20.18
2022-08-03T04:57:39.730Z,20.28
2022-08-03T05:00:08.045Z,20.35
2022-08-03T05:02:35.546Z,20.44
2022-08-03T05:05:09.503Z,20.43
2022-08-03T05:07:39.215Z,20.50
2022-08-03T05:10:14.795Z,20.52
2022-08-03T05:12:45.892Z,20.52
2022-08-03T05:15:13.675Z,20.48
2022-08-03T05:17:41.379Z,20.48
2022-08-03T05:20:10.117Z,20.46
2022-08-03T05:22:37.478Z,20.42
2022-08-03T05:25:05.336Z,20.37
2022-08-03T05:27:32.738Z,20.30
2022-08-03T05:30:30.671Z,20.29
2022-08-03T05:32:47.485Z,20.29
2022-08-03T05:36:00.784Z,20.31
2022-08-03T05:38:03.533Z,20.35
2022-08-03T05:40:32.006Z,20.46
2022-08-03T05:43:00.109Z,20.49
2022-08-03T05:45:28.522Z,20.65
2022-08-03T05:47:56.499Z,20.77
2022-08-03T05:50:24.055Z,20.89
2022-08-03T05:52:51.534Z,21.03
2022-08-03T05:55:19.175Z,21.15
2022-08-03T05:57:47.742Z,21.22
2022-08-03T06:00:17.509Z,21.27
2022-08-03T06:02:46.235Z,21.32
2022-08-03T06:05:13.616Z,21.38
2022-08-03T06:07:41.137Z,21.39
2022-08-03T06:10:37.355Z,21.45
2022-08-03T06:12:56.716Z,21.54
2022-08-03T06:15:24.006Z,21.46
2022-08-03T06:18:01.453Z,21.41
2022-08-03T06:20:30.362Z,21.47
2022-08-03T06:23:00.419Z,21.60
2022-08-03T06:25:29.389Z,21.80
2022-08-03T06:27:57.142Z,22.00
2022-08-03T06:30:24.783Z,22.19
2022-08-03T06:32:52.532Z,22.38
2022-08-03T06:35:20.828Z,22.57
2022-08-03T06:37:51.880Z,22.76
2022-08-03T06:40:29.222Z,23.01
2022-08-03T06:42:58.270Z,23.24
2022-08-03T06:45:25.933Z,23.43
2022-08-03T06:48:11.960Z,23.67
2022-08-03T06:50:41.772Z,23.89
2022-08-03T06:53:15.627Z,24.06
2022-08-03T06:55:53.936Z,24.23
2022-08-03T06:58:22.618Z,24.39
2022-08-03T07:00:50.255Z,24.54
2022-08-03T07:03:17.765Z,24.34
2022-08-03T07:05:48.332Z,24.49
2022-08-03T07:08:15.929Z,24.46
2022-08-03T07:10:44.195Z,24.59
2022-08-03T07:13:11.753Z,24.79
2022-08-03T07:15:55.684Z,24.96
2022-08-03T07:18:29.844Z,25.11
2022-08-03T07:21:00.281Z,25.26
2022-08-03T07:23:27.660Z,25.36
2022-08-03T07:25:54.932Z,25.47
2022-08-03T07:28:22.306Z,25.58
2022-08-03T07:30:49.847Z,25.67
2022-08-03T07:33:17.194Z,25.69
2022-08-03T07:35:44.469Z,25.77
2022-08-03T07:38:11.916Z,25.91
2022-08-03T07:40:44.416Z,26.09
2022-08-03T07:43:13.609Z,26.31
2022-08-03T07:45:40.979Z,26.45
2022-08-03T07:48:12.193Z,26.67
2022-08-03T07:50:41.204Z,26.92
2022-08-03T07:53:08.828Z,27.11
2022-08-03T07:55:36.175Z,27.30
2022-08-03T07:58:12.622Z,27.41
2022-08-03T08:00:40.008Z,27.59
2022-08-03T08:03:08.250Z,27.82
2022-08-03T08:05:35.463Z,28.11
2022-08-03T08:08:04.212Z,28.46
2022-08-03T08:10:33.346Z,28.62
2022-08-03T08:13:01.896Z,28.68
2022-08-03T08:15:30.294Z,28.82
2022-08-03T08:18:01.572Z,29.08
2022-08-03T08:20:34.974Z,29.26
2022-08-03T08:23:19.248Z,29.31
2022-08-03T08:25:56.283Z,29.11
2022-08-03T08:28:32.819Z,29.20
2022-08-03T08:31:02.486Z,29.35
2022-08-03T08:33:42.509Z,29.39
2022-08-03T08:36:18.166Z,29.47
2022-08-03T08:38:45.713Z,29.70
2022-08-03T08:41:15.293Z,29.96
2022-08-03T08:43:43.794Z,29.93
2022-08-03T08:46:22.947Z,29.99
2022-08-03T08:48:52.505Z,30.02
2022-08-03T08:51:22.507Z,30.26
2022-08-03T08:53:54.287Z,30.49
2022-08-03T08:56:26.242Z,30.72
2022-08-03T08:58:59.249Z,31.01
2022-08-03T09:01:27.756Z,31.16
2022-08-03T09:03:55.895Z,31.26
2022-08-03T09:06:24.759Z,31.48
2022-08-03T09:08:52.610Z,31.84
2022-08-03T09:11:57.652Z,32.04
2022-08-03T09:14:37.119Z,32.22
2022-08-03T09:17:05.308Z,32.26
2022-08-03T09:19:34.877Z,32.34
2022-08-03T09:22:16.802Z,32.37
2022-08-03T09:25:27.198Z,32.54
2022-08-03T09:27:54.706Z,33.74
2022-08-03T09:30:34.530Z,38.77
2022-08-03T09:33:11.245Z,46.73
2022-08-03T09:35:57.461Z,51.86
2022-08-03T09:38:28.857Z,55.28
2022-08-03T09:41:00.244Z,57.97
2022-08-03T09:43:28.818Z,60.12
2022-08-03T09:46:07.481Z,62.10
2022-08-03T09:48:36.921Z,63.45
2022-08-03T09:51:12.809Z,65.12
2022-08-03T09:53:58.948Z,64.95
2022-08-03T09:56:41.707Z,62.92
2022-08-03T09:59:11.645Z,58.90
2022-08-03T10:01:41.961Z,58.38
2022-08-03T10:04:15.141Z,60.13
2022-08-03T10:06:44.317Z,62.55
2022-08-03T10:09:17.222Z,63.15
2022-08-03T10:11:47.041Z,63.62
2022-08-03T10:14:23.564Z,66.27
2022-08-03T10:16:50.914Z,67.76
2022-08-03T10:19:18.421Z,67.12
2022-08-03T10:21:57.026Z,68.48
2022-08-03T10:24:29.575Z,69.72
2022-08-03T10:27:08.063Z,68.82
2022-08-03T10:29:41.312Z,67.56
2022-08-03T10:32:22.717Z,63.61
2022-08-03T10:34:59.874Z,63.74
2022-08-03T10:37:34.636Z,65.56
2022-08-03T10:40:04.269Z,65.55
2022-08-03T10:42:32.101Z,66.63
2022-08-03T10:45:18.778Z,67.22
2022-08-03T10:47:49.513Z,68.76
2022-08-03T10:50:18.346Z,70.03
2022-08-03T10:52:55.275Z,67.46
2022-08-03T10:55:59.835Z,60.39
2022-08-03T10:58:37.962Z,55.26
2022-08-03T11:01:58.903Z,51.83
2022-08-03T11:04:30.320Z,49.82
2022-08-03T11:07:16.900Z,47.79
2022-08-03T11:09:51.200Z,46.64
2022-08-03T11:12:30.735Z,45.54
2022-08-03T11:15:05.095Z,44.54
2022-08-03T11:17:46.717Z,43.81
2022-08-03T11:20:52.903Z,43.19
2022-08-03T11:24:03.338Z,42.88
2022-08-03T11:26:29.476Z,42.45
2022-08-03T11:29:32.005Z,41.57
2022-08-03T11:31:59.290Z,41.05
2022-08-03T11:34:26.908Z,40.22
2022-08-03T11:37:22.336Z,39.93
2022-08-03T11:39:54.591Z,39.21
2022-08-03T11:42:24.987Z,39.05
2022-08-03T11:45:00.665Z,38.99
2022-08-03T11:47:30.284Z,39.00
2022-08-03T11:50:02.077Z,39.07
2022-08-03T11:52:38.360Z,39.04
2022-08-03T11:55:11.812Z,39.09
2022-08-03T11:59:01.264Z,38.95
2022-08-03T12:00:32.787Z,38.53
2022-08-03T12:03:11.280Z,38.36
2022-08-03T12:05:41.583Z,38.33
2022-08-03T12:08:41.006Z,38.06
2022-08-03T12:11:11.739Z,37.71
2022-08-03T12:14:45.122Z,37.44
2022-08-03T12:16:31.807Z,37.40
2022-08-03T12:19:06.805Z,37.04
2022-08-03T12:21:34.605Z,37.13
2022-08-03T12:24:05.298Z,36.96
2022-08-03T12:26:58.518Z,36.62
2022-08-03T12:29:27.623Z,36.71
2022-08-03T12:31:55.983Z,36.81
2022-08-03T12:34:23.702Z,37.00
2022-08-03T12:36:56.933Z,37.27
2022-08-03T12:39:26.714Z,37.35
2022-08-03T12:41:56.462Z,37.52
2022-08-03T12:44:35.820Z,37.49
2022-08-03T12:47:06.824Z,37.14
2022-08-03T12:49:48.444Z,36.72
2022-08-03T12:52:18.071Z,36.30
2022-08-03T12:55:00.098Z,35.97
2022-08-03T12:57:42.171Z,35.79
2022-08-03T13:00:21.448Z,36.06
2022-08-03T13:03:38.851Z,36.11
2022-08-03T13:05:57.556Z,35.98
2022-08-03T13:08:26.009Z,35.67
2022-08-03T13:10:53.911Z,35.83
2022-08-03T13:13:39.648Z,36.13
2022-08-03T13:16:07.585Z,36.29
2022-08-03T13:18:34.788Z,36.48
2022-08-03T13:21:02.324Z,36.58
2022-08-03T13:23:30.013Z,36.65
2022-08-03T13:25:57.205Z,36.67
2022-08-03T13:28:24.454Z,36.70
2022-08-03T13:30:51.982Z,36.79
2022-08-03T13:33:19.349Z,36.82
2022-08-03T13:35:46.607Z,36.77
2022-08-03T13:38:15.356Z,36.58
2022-08-03T13:40:44.560Z,36.48
2022-08-03T13:43:13.373Z,36.55
2022-08-03T13:45:40.770Z,36.63
2022-08-03T13:48:08.004Z,36.55
2022-08-03T13:50:37.605Z,36.39
2022-08-03T13:53:08.732Z,36.05
2022-08-03T13:55:36.048Z,35.54
2022-08-03T13:58:07.504Z,35.58
2022-08-03T14:00:35.326Z,35.49
2022-08-03T14:03:12.241Z,35.43
2022-08-03T14:05:43.227Z,35.19
2022-08-03T14:08:11.420Z,35.12
2022-08-03T14:10:42.592Z,35.08
2022-08-03T14:13:16.627Z,35.19
2022-08-03T14:15:50.942Z,35.35
2022-08-03T14:18:29.190Z,35.43
2022-08-03T14:21:06.729Z,35.50
2022-08-03T14:23:37.938Z,35.46
2022-08-03T14:26:09.606Z,35.42
2022-08-03T14:28:37.091Z,35.38
2022-08-03T14:31:08.234Z,35.40
2022-08-03T14:33:42.982Z,35.30
2022-08-03T14:36:10.186Z,35.39
2022-08-03T14:38:37.401Z,35.43
2022-08-03T14:41:05.000Z,35.31
2022-08-03T14:43:34.017Z,35.26
2022-08-03T14:46:01.728Z,35.11
2022-08-03T14:50:29.465Z,35.04
2022-08-03T14:51:16.544Z,34.97
2022-08-03T14:53:44.049Z,34.87
2022-08-03T14:56:11.300Z,34.80
2022-08-03T14:58:38.802Z,34.71
2022-08-03T15:02:06.230Z,34.63
2022-08-03T15:03:54.778Z,34.50
2022-08-03T15:06:22.240Z,34.24
2022-08-03T15:09:06.267Z,33.96
2022-08-03T15:11:37.521Z,33.78
2022-08-03T15:14:09.000Z,33.70
2022-08-03T15:16:38.107Z,33.52
2022-08-03T15:19:59.585Z,33.41
2022-08-03T15:21:53.572Z,33.50
2022-08-03T15:24:21.100Z,33.67
2022-08-03T15:26:48.313Z,33.69
2022-08-03T15:30:06.901Z,33.73
2022-08-03T15:32:09.156Z,33.71
2022-08-03T15:34:36.962Z,33.66
2022-08-03T15:37:16.255Z,33.60
2022-08-03T15:40:00.830Z,33.41
2022-08-03T15:42:30.346Z,33.24
2022-08-03T15:44:57.763Z,33.12
2022-08-03T15:47:25.710Z,32.91
2022-08-03T15:49:55.768Z,32.79
2022-08-03T15:52:23.162Z,32.73
2022-08-03T15:54:50.417Z,32.60
2022-08-03T15:57:17.959Z,32.61
2022-08-03T15:59:45.234Z,32.48
2022-08-03T16:02:12.481Z,32.36
2022-08-03T16:04:39.948Z,32.33
2022-08-03T16:07:07.201Z,32.32
2022-08-03T16:09:43.132Z,32.30
2022-08-03T16:12:16.426Z,32.27
2022-08-03T16:14:53.821Z,32.21
2022-08-03T16:17:22.631Z,32.17
2022-08-03T16:19:54.722Z,32.08
2022-08-03T16:22:24.065Z,32.00
2022-08-03T16:24:53.473Z,31.92
2022-08-03T16:27:55.787Z,31.87
2022-08-03T16:30:12.714Z,31.81
2022-08-03T16:32:40.004Z,31.77
2022-08-03T16:35:08.710Z,31.72
2022-08-03T16:37:38.506Z,31.63
2022-08-03T16:40:17.376Z,31.60
2022-08-03T16:42:47.611Z,31.49
2022-08-03T16:45:15.013Z,31.43
2022-08-03T16:47:42.308Z,31.41
2022-08-03T16:50:15.761Z,31.32
2022-08-03T16:52:47.370Z,31.26
2022-08-03T16:55:18.369Z,31.19
2022-08-03T16:57:58.688Z,31.16
2022-08-03T17:00:33.815Z,31.11
2022-08-03T17:03:18.642Z,31.05
2022-08-03T17:05:49.925Z,30.97
2022-08-03T17:08:18.924Z,30.91
2022-08-03T17:10:53.866Z,30.77
2022-08-03T17:13:22.861Z,30.66
2022-08-03T17:15:58.067Z,30.58
2022-08-03T17:18:37.523Z,30.47
2022-08-03T17:21:11.309Z,30.41
2022-08-03T17:23:50.127Z,30.30
2022-08-03T17:26:22.285Z,30.21
2022-08-03T17:28:58.094Z,30.14
2022-08-03T17:31:31.605Z,30.02
2022-08-03T17:34:04.625Z,29.91
2022-08-03T17:37:03.111Z,29.82
2022-08-03T17:39:42.136Z,29.84
2022-08-03T17:42:30.959Z,29.67
2022-08-03T17:45:03.790Z,29.53
2022-08-03T17:47:42.087Z,29.43
2022-08-03T17:50:24.436Z,29.30
2022-08-03T17:53:15.355Z,29.24
2022-08-03T17:56:44.537Z,29.04
2022-08-03T17:59:57.829Z,28.91
2022-08-03T18:03:11.168Z,28.72
2022-08-03T18:06:10.846Z,28.61
2022-08-03T18:08:51.315Z,28.44
2022-08-03T18:11:35.694Z,28.32
2022-08-03T18:14:23.917Z,28.18
2022-08-03T18:17:03.308Z,28.08
2022-08-03T18:20:02.713Z,27.98
2022-08-03T18:22:27.030Z,27.80
2022-08-03T18:24:56.189Z,27.67
2022-08-03T18:27:25.150Z,27.55
2022-08-03T18:30:15.359Z,27.48
2022-08-03T18:33:01.125Z,27.40
2022-08-03T18:35:53.074Z,27.28
2022-08-03T18:38:23.784Z,27.15
2022-08-03T18:40:51.810Z,27.05
2022-08-03T18:43:21.123Z,27.00
2022-08-03T18:46:45.468Z,26.84
2022-08-03T18:49:52.653Z,26.83
2022-08-03T18:52:46.071Z,26.76
2022-08-03T18:55:35.476Z,26.72
2022-08-03T18:58:17.913Z,26.64
2022-08-03T19:02:00.361Z,26.58
2022-08-03T19:04:15.549Z,26.48
2022-08-03T19:06:48.302Z,26.48
2022-08-03T19:09:32.845Z,26.34
2022-08-03T19:12:12.335Z,26.32
2022-08-03T19:15:00.265Z,26.30
2022-08-03T19:17:32.355Z,26.27
2022-08-03T19:20:04.061Z,26.24
2022-08-03T19:22:33.624Z,26.21
2022-08-03T19:25:03.939Z,26.17
2022-08-03T19:27:33.191Z,26.13
2022-08-03T19:30:19.799Z,26.05
2022-08-03T19:32:55.082Z,25.99
2022-08-03T19:35:51.595Z,25.92
2022-08-03T19:38:11.448Z,25.86
2022-08-03T19:40:44.442Z,25.75
2022-08-03T19:43:53.856Z,25.69
2022-08-03T19:46:31.716Z,25.62
2022-08-03T19:49:15.069Z,25.50
2022-08-03T19:52:01.138Z,25.39
2022-08-03T19:54:54.083Z,25.23
2022-08-03T19:57:27.336Z,25.11
2022-08-03T19:59:57.260Z,25.01
2022-08-03T20:02:27.103Z,24.96
2022-08-03T20:04:59.938Z,24.86
2022-08-03T20:07:32.025Z,24.82
2022-08-03T20:10:02.595Z,24.77
2022-08-03T20:12:34.395Z,24.72
2022-08-03T20:15:07.901Z,24.71
2022-08-03T20:17:57.068Z,24.67
2022-08-03T20:20:34.314Z,24.61
2022-08-03T20:23:07.540Z,24.58
2022-08-03T20:25:48.767Z,24.54
2022-08-03T20:29:01.078Z,24.46
2022-08-03T20:31:37.691Z,24.43
2022-08-03T20:34:06.586Z,24.34
2022-08-03T20:36:33.973Z,24.29
2022-08-03T20:39:02.321Z,24.30
2022-08-03T20:41:35.498Z,24.30
2022-08-03T20:44:04.583Z,24.27
2022-08-03T20:46:44.119Z,24.25
2022-08-03T20:49:22.944Z,24.21
2022-08-03T20:51:53.321Z,24.19
2022-08-03T20:54:30.971Z,24.16
2022-08-03T20:57:14.274Z,24.13
2022-08-03T20:59:50.369Z,24.11
2022-08-03T21:02:29.976Z,24.07
2022-08-03T21:05:03.702Z,24.07
2022-08-03T21:08:06.418Z,23.97
2022-08-03T21:10:38.420Z,23.95
2022-08-03T21:13:30.390Z,23.82
2022-08-03T21:16:11.969Z,23.82
2022-08-03T21:18:50.586Z,23.72
2022-08-03T21:21:22.504Z,23.66
2022-08-03T21:23:55.277Z,23.59
2022-08-03T21:26:25.502Z,23.55
2022-08-03T21:28:56.756Z,23.48
2022-08-03T21:31:26.553Z,23.42
2022-08-03T21:34:01.506Z,23.38
2022-08-03T21:36:34.644Z,23.35
2022-08-03T21:39:07.025Z,23.32
2022-08-03T21:41:36.393Z,23.23
2022-08-03T21:44:05.626Z,23.20
2022-08-03T21:46:39.698Z,23.18
2022-08-03T21:50:02.660Z,23.22
2022-08-03T21:51:59.838Z,23.21
2022-08-03T21:54:49.129Z,23.11
2022-08-03T21:57:25.676Z,23.16
2022-08-03T22:00:07.164Z,23.09
2022-08-03T22:02:35.801Z,23.01
2022-08-03T22:05:04.764Z,22.98
2022-08-03T22:07:34.608Z,22.96
2022-08-03T22:10:07.623Z,22.92
2022-08-03T22:12:35.965Z,22.85
2022-08-03T22:15:08.481Z,22.82
2022-08-03T22:17:54.796Z,22.77
2022-08-03T22:20:25.276Z,22.77
2022-08-03T22:22:57.059Z,22.75
2022-08-03T22:25:34.325Z,22.70
2022-08-03T22:28:09.576Z,22.65
2022-08-03T22:30:38.918Z,22.65
2022-08-03T22:33:11.145Z,22.61
2022-08-03T22:35:50.419Z,22.55
2022-08-03T22:38:19.214Z,22.51
2022-08-03T22:40:50.994Z,22.50
2022-08-03T22:43:26.823Z,22.45
2022-08-03T22:46:09.803Z,22.50
2022-08-03T22:48:40.761Z,22.44
2022-08-03T22:51:09.963Z,22.50
2022-08-03T22:53:39.150Z,22.48
2022-08-03T22:56:07.809Z,22.45
2022-08-03T22:58:35.071Z,22.40
2022-08-03T23:01:14.975Z,22.40
2022-08-03T23:03:59.163Z,22.41
2022-08-03T23:06:35.699Z,22.42
2022-08-03T23:09:11.128Z,22.43
2022-08-03T23:11:46.029Z,22.38
2022-08-03T23:14:18.588Z,22.30
2022-08-03T23:16:53.165Z,22.32
2022-08-03T23:19:26.242Z,22.36
2022-08-03T23:22:02.239Z,22.38
2022-08-03T23:24:38.579Z,22.37
2022-08-03T23:27:09.258Z,22.36
2022-08-03T23:29:39.742Z,22.37
2022-08-03T23:32:10.124Z,22.41
2022-08-03T23:34:59.501Z,22.36
2022-08-03T23:37:27.054Z,22.31
2022-08-03T23:39:57.458Z,22.29
2022-08-03T23:42:25.728Z,22.27
2022-08-03T23:44:59.504Z,22.28
2022-08-03T23:47:46.879Z,22.29
2022-08-03T23:50:15.432Z,22.28
2022-08-03T23:52:56.437Z,22.26
2022-08-03T23:56:04.059Z,22.17
2022-08-03T23:59:01.202Z,22.20
